KCAO/CAO METAR and TAF weather

Enter ICAO airport designator
Station Type Date Time Source
KCAO METAR 2018/04/20 08:55 UTC NOAA

KCAO 200855Z AUTO 16021G30KT 10SM OVC055 08/M03 A3009 RMK AO2 PK WND 16030/0847 SLP151 T00781033 58014


Station Type Date Time Source
KCAO Decoded METAR 2018/04/20 08:55 UTC NOAA

CLAYTON MUNICIPAL AIRPARK, NM, United States (KCAO) 36-27N 103-09W 1514M
Apr 20, 2018 - 04:55 AM EDT / 2018.04.20 0855 UTC
Wind: from the SSE (160 degrees) at 24 MPH (21 KT) gusting to 35 MPH (30 KT):0
Visibility: 10 mile(s):0
Sky conditions: overcast
Temperature: 46.0 F (7.8 C)
Dew Point: 26.1 F (-3.3 C)
Relative Humidity: 45%
Pressure (altimeter): 30.09 in. Hg (1018 hPa)
Pressure tendency: 0.04 inches (1.4 hPa) lower than three hours ago
ob: KCAO 200855Z AUTO 16021G30KT 10SM OVC055 08/M03 A3009 RMK AO2 PK WND 16030/0847 SLP151 T00781033 58014
cycle: 9

Station Type Date Time Source
KCAO TAF UTC NOAA

Error!


Example: see airport list